sensor_id;sensor_type;location;lat;lon;timestamp;pressure;altitude;pressure_sealevel;temperature;humidity
51807;BME280;37865;51.304;9.536;2023-05-12T00:01:10;99932.97;;;11.91;100.00
51807;BME280;37865;51.304;9.536;2023-05-12T00:03:36;99934.88;;;11.90;100.00
51807;BME280;37865;51.304;9.536;2023-05-12T00:06:01;99934.88;;;11.90;100.00
51807;BME280;37865;51.304;9.536;2023-05-12T00:08:29;99932.16;;;11.90;100.00
51807;BME280;37865;51.304;9.536;2023-05-12T00:10:55;99930.78;;;11.88;100.00
51807;BME280;37865;51.304;9.536;2023-05-12T00:13:21;99932.41;;;11.89;100.00
51807;BME280;37865;51.304;9.536;2023-05-12T00:15:48;99928.06;;;11.88;100.00
51807;BME280;37865;51.304;9.536;2023-05-12T00:18:14;99922.31;;;11.89;100.00
51807;BME280;37865;51.304;9.536;2023-05-12T00:20:39;99923.38;;;11.88;100.00
51807;BME280;37865;51.304;9.536;2023-05-12T00:23:04;99926.69;;;11.90;100.00
51807;BME280;37865;51.304;9.536;2023-05-12T00:25:30;99931.09;;;11.91;100.00
51807;BME280;37865;51.304;9.536;2023-05-12T00:27:55;99930.25;;;11.91;100.00
51807;BME280;37865;51.304;9.536;2023-05-12T00:30:20;99930.00;;;11.92;100.00
51807;BME280;37865;51.304;9.536;2023-05-12T00:32:46;99927.28;;;11.92;100.00
51807;BME280;37865;51.304;9.536;2023-05-12T00:35:11;99932.47;;;11.94;100.00
51807;BME280;37865;51.304;9.536;2023-05-12T00:37:36;99921.53;;;11.94;100.00
51807;BME280;37865;51.304;9.536;2023-05-12T00:40:02;99914.19;;;11.94;100.00
51807;BME280;37865;51.304;9.536;2023-05-12T00:42:28;99913.09;;;11.95;100.00
51807;BME280;37865;51.304;9.536;2023-05-12T00:44:53;99909.78;;;11.93;100.00
51807;BME280;37865;51.304;9.536;2023-05-12T00:47:19;99912.53;;;11.93;100.00
51807;BME280;37865;51.304;9.536;2023-05-12T00:49:45;99921.53;;;11.94;100.00
51807;BME280;37865;51.304;9.536;2023-05-12T00:52:10;99915.25;;;11.93;100.00
51807;BME280;37865;51.304;9.536;2023-05-12T00:54:36;99915.25;;;11.93;100.00
51807;BME280;37865;51.304;9.536;2023-05-12T00:57:02;99922.63;;;11.93;100.00
51807;BME280;37865;51.304;9.536;2023-05-12T00:59:28;99922.63;;;11.93;100.00
51807;BME280;37865;51.304;9.536;2023-05-12T01:01:54;99916.59;;;11.91;100.00
51807;BME280;37865;51.304;9.536;2023-05-12T01:04:20;99924.78;;;11.91;100.00
51807;BME280;37865;51.304;9.536;2023-05-12T01:06:58;99920.41;;;11.90;100.00
51807;BME280;37865;51.304;9.536;2023-05-12T01:09:26;99923.38;;;11.88;100.00
51807;BME280;37865;51.304;9.536;2023-05-12T01:11:51;99921.75;;;11.87;100.00
51807;BME280;37865;51.304;9.536;2023-05-12T01:14:17;99926.38;;;11.87;100.00
51807;BME280;37865;51.304;9.536;2023-05-12T01:16:55;99929.38;;;11.85;100.00
51807;BME280;37865;51.304;9.536;2023-05-12T01:19:48;99920.34;;;11.85;100.00
51807;BME280;37865;51.304;9.536;2023-05-12T01:22:15;99921.69;;;11.82;100.00
51807;BME280;37865;51.304;9.536;2023-05-12T01:24:48;99927.16;;;11.82;100.00
51807;BME280;37865;51.304;9.536;2023-05-12T01:27:14;99931.00;;;11.81;100.00
51807;BME280;37865;51.304;9.536;2023-05-12T01:29:40;99930.44;;;11.79;100.00
51807;BME280;37865;51.304;9.536;2023-05-12T01:32:06;99926.03;;;11.78;100.00
51807;BME280;37865;51.304;9.536;2023-05-12T01:34:32;99931.75;;;11.77;100.00
51807;BME280;37865;51.304;9.536;2023-05-12T01:36:58;99932.03;;;11.75;100.00
51807;BME280;37865;51.304;9.536;2023-05-12T01:39:23;99936.09;;;11.73;100.00
51807;BME280;37865;51.304;9.536;2023-05-12T01:41:49;99934.44;;;11.72;100.00
51807;BME280;37865;51.304;9.536;2023-05-12T01:44:15;99936.38;;;11.71;100.00
51807;BME280;37865;51.304;9.536;2023-05-12T01:46:40;99941.00;;;11.71;100.00
51807;BME280;37865;51.304;9.536;2023-05-12T01:49:05;99934.97;;;11.69;100.00
51807;BME280;37865;51.304;9.536;2023-05-12T01:51:31;99938.75;;;11.68;100.00
51807;BME280;37865;51.304;9.536;2023-05-12T01:53:56;99945.06;;;11.68;100.00
51807;BME280;37865;51.304;9.536;2023-05-12T01:56:21;99940.69;;;11.67;100.00
51807;BME280;37865;51.304;9.536;2023-05-12T01:58:46;99944.50;;;11.66;100.00
51807;BME280;37865;51.304;9.536;2023-05-12T02:01:12;99943.88;;;11.64;100.00
51807;BME280;37865;51.304;9.536;2023-05-12T02:03:37;99939.53;;;11.63;100.00
51807;BME280;37865;51.304;9.536;2023-05-12T02:06:03;99940.59;;;11.62;100.00
51807;BME280;37865;51.304;9.536;2023-05-12T02:08:28;99944.66;;;11.60;100.00
51807;BME280;37865;51.304;9.536;2023-05-12T02:11:11;99937.78;;;11.57;100.00
51807;BME280;37865;51.304;9.536;2023-05-12T02:13:36;99941.63;;;11.56;100.00
51807;BME280;37865;51.304;9.536;2023-05-12T02:16:02;99946.53;;;11.54;100.00
51807;BME280;37865;51.304;9.536;2023-05-12T02:18:28;99940.22;;;11.54;100.00
51807;BME280;37865;51.304;9.536;2023-05-12T02:20:53;99948.41;;;11.54;100.00
51807;BME280;37865;51.304;9.536;2023-05-12T02:23:19;99933.38;;;11.51;100.00
51807;BME280;37865;51.304;9.536;2023-05-12T02:25:44;99942.66;;;11.50;100.00
51807;BME280;37865;51.304;9.536;2023-05-12T02:28:10;99938.53;;;11.48;100.00
51807;BME280;37865;51.304;9.536;2023-05-12T02:30:46;99944.25;;;11.46;100.00
51807;BME280;37865;51.304;9.536;2023-05-12T02:33:16;99945.59;;;11.44;100.00
51807;BME280;37865;51.304;9.536;2023-05-12T02:35:43;99945.59;;;11.44;100.00
51807;BME280;37865;51.304;9.536;2023-05-12T02:38:09;99942.03;;;11.43;100.00
51807;BME280;37865;51.304;9.536;2023-05-12T02:40:34;99949.38;;;11.43;100.00
51807;BME280;37865;51.304;9.536;2023-05-12T02:42:59;99943.13;;;11.42;100.00
51807;BME280;37865;51.304;9.536;2023-05-12T02:45:25;99944.19;;;11.41;100.00
51807;BME280;37865;51.304;9.536;2023-05-12T02:47:50;99945.28;;;11.40;100.00
51807;BME280;37865;51.304;9.536;2023-05-12T02:50:16;99946.34;;;11.39;100.00
51807;BME280;37865;51.304;9.536;2023-05-12T02:52:41;99940.06;;;11.39;100.00
51807;BME280;37865;51.304;9.536;2023-05-12T02:55:07;99943.88;;;11.38;100.00
51807;BME280;37865;51.304;9.536;2023-05-12T02:57:32;99946.03;;;11.36;100.00
51807;BME280;37865;51.304;9.536;2023-05-12T02:59:59;99947.09;;;11.34;100.00
51807;BME280;37865;51.304;9.536;2023-05-12T03:02:24;99949.84;;;11.34;100.00
51807;BME280;37865;51.304;9.536;2023-05-12T03:04:50;99956.38;;;11.33;100.00
51807;BME280;37865;51.304;9.536;2023-05-12T03:07:15;99953.66;;;11.33;100.00
51807;BME280;37865;51.304;9.536;2023-05-12T03:09:41;99949.03;;;11.34;100.00
51807;BME280;37865;51.304;9.536;2023-05-12T03:12:06;99953.66;;;11.33;100.00
51807;BME280;37865;51.304;9.536;2023-05-12T03:14:32;99950.09;;;11.33;100.00
51807;BME280;37865;51.304;9.536;2023-05-12T03:16:57;99943.81;;;11.32;100.00
51807;BME280;37865;51.304;9.536;2023-05-12T03:19:22;99947.63;;;11.31;100.00
51807;BME280;37865;51.304;9.536;2023-05-12T03:21:48;99947.63;;;11.31;100.00
51807;BME280;37865;51.304;9.536;2023-05-12T03:24:13;99954.16;;;11.30;100.00
51807;BME280;37865;51.304;9.536;2023-05-12T03:26:38;99961.53;;;11.30;100.00
51807;BME280;37865;51.304;9.536;2023-05-12T03:29:04;99959.63;;;11.30;100.00
51807;BME280;37865;51.304;9.536;2023-05-12T03:31:29;99956.88;;;11.30;100.00
51807;BME280;37865;51.304;9.536;2023-05-12T03:33:54;99951.44;;;11.30;100.00
51807;BME280;37865;51.304;9.536;2023-05-12T03:36:19;99956.66;;;11.32;100.00
51807;BME280;37865;51.304;9.536;2023-05-12T03:38:45;99953.09;;;11.31;100.00
51807;BME280;37865;51.304;9.536;2023-05-12T03:41:10;99950.38;;;11.31;100.00
51807;BME280;37865;51.304;9.536;2023-05-12T03:43:35;99954.72;;;11.32;100.00
51807;BME280;37865;51.304;9.536;2023-05-12T03:46:01;99960.19;;;11.32;100.00
51807;BME280;37865;51.304;9.536;2023-05-12T03:48:26;99953.66;;;11.33;100.00
51807;BME280;37865;51.304;9.536;2023-05-12T03:50:51;99962.41;;;11.36;100.00
51807;BME280;37865;51.304;9.536;2023-05-12T03:53:17;99964.31;;;11.35;100.00
51807;BME280;37865;51.304;9.536;2023-05-12T03:55:42;99964.59;;;11.33;100.00
51807;BME280;37865;51.304;9.536;2023-05-12T03:58:07;99959.38;;;11.32;100.00
51807;BME280;37865;51.304;9.536;2023-05-12T04:00:33;99962.13;;;11.32;100.00
51807;BME280;37865;51.304;9.536;2023-05-12T04:02:58;99953.94;;;11.32;100.00
51807;BME280;37865;51.304;9.536;2023-05-12T04:05:24;99960.75;;;11.34;100.00
51807;BME280;37865;51.304;9.536;2023-05-12T04:07:50;99963.25;;;11.36;100.00
51807;BME280;37865;51.304;9.536;2023-05-12T04:10:15;99965.19;;;11.41;100.00
51807;BME280;37865;51.304;9.536;2023-05-12T04:12:40;99966.34;;;11.45;100.00
51807;BME280;37865;51.304;9.536;2023-05-12T04:15:06;99967.72;;;11.47;100.00
51807;BME280;37865;51.304;9.536;2023-05-12T04:17:32;99966.97;;;11.52;100.00
51807;BME280;37865;51.304;9.536;2023-05-12T04:19:57;99977.97;;;11.57;100.00
51807;BME280;37865;51.304;9.536;2023-05-12T04:22:23;99968.19;;;11.61;100.00
51807;BME280;37865;51.304;9.536;2023-05-12T04:24:48;99972.88;;;11.65;100.00
51807;BME280;37865;51.304;9.536;2023-05-12T04:27:13;99967.75;;;11.69;100.00
51807;BME280;37865;51.304;9.536;2023-05-12T04:29:39;99971.03;;;11.71;100.00
51807;BME280;37865;51.304;9.536;2023-05-12T04:32:04;99972.16;;;11.75;100.00
51807;BME280;37865;51.304;9.536;2023-05-12T04:34:30;99975.78;;;11.80;100.00
51807;BME280;37865;51.304;9.536;2023-05-12T04:36:55;99977.47;;;11.86;100.00
51807;BME280;37865;51.304;9.536;2023-05-12T04:39:20;99970.16;;;11.92;100.00
51807;BME280;37865;51.304;9.536;2023-05-12T04:41:46;99978.16;;;11.98;100.00
51807;BME280;37865;51.304;9.536;2023-05-12T04:44:11;99983.16;;;12.06;100.00
51807;BME280;37865;51.304;9.536;2023-05-12T04:46:36;99982.97;;;12.18;100.00
51807;BME280;37865;51.304;9.536;2023-05-12T04:49:02;99991.81;;;12.30;100.00
51807;BME280;37865;51.304;9.536;2023-05-12T04:51:27;99993.56;;;12.41;100.00
51807;BME280;37865;51.304;9.536;2023-05-12T04:53:52;100000.22;;;12.50;100.00
51807;BME280;37865;51.304;9.536;2023-05-12T04:56:18;99994.53;;;12.57;100.00
51807;BME280;37865;51.304;9.536;2023-05-12T04:58:43;100001.91;;;12.61;100.00
51807;BME280;37865;51.304;9.536;2023-05-12T05:01:08;100007.94;;;12.63;100.00
51807;BME280;37865;51.304;9.536;2023-05-12T05:03:36;99999.22;;;12.66;100.00
51807;BME280;37865;51.304;9.536;2023-05-12T05:06:01;100015.09;;;12.69;100.00
51807;BME280;37865;51.304;9.536;2023-05-12T05:08:27;100012.94;;;12.71;100.00
51807;BME280;37865;51.304;9.536;2023-05-12T05:10:52;100011.84;;;12.72;100.00
51807;BME280;37865;51.304;9.536;2023-05-12T05:13:17;100019.56;;;12.75;100.00
51807;BME280;37865;51.304;9.536;2023-05-12T05:15:52;100023.66;;;12.78;100.00
51807;BME280;37865;51.304;9.536;2023-05-12T05:18:18;100024.53;;;12.83;100.00
51807;BME280;37865;51.304;9.536;2023-05-12T05:20:43;100017.44;;;12.87;100.00
51807;BME280;37865;51.304;9.536;2023-05-12T05:23:10;100026.78;;;12.91;100.00
51807;BME280;37865;51.304;9.536;2023-05-12T05:25:35;100028.72;;;12.96;100.00
51807;BME280;37865;51.304;9.536;2023-05-12T05:28:00;100019.47;;;13.02;100.00
51807;BME280;37865;51.304;9.536;2023-05-12T05:30:26;100029.66;;;13.12;100.00
51807;BME280;37865;51.304;9.536;2023-05-12T05:32:51;100031.91;;;13.20;100.00
51807;BME280;37865;51.304;9.536;2023-05-12T05:35:17;100026.47;;;13.30;100.00
51807;BME280;37865;51.304;9.536;2023-05-12T05:37:42;100029.28;;;13.40;100.00
51807;BME280;37865;51.304;9.536;2023-05-12T05:40:08;100034.25;;;13.48;100.00
51807;BME280;37865;51.304;9.536;2023-05-12T05:42:34;100039.75;;;13.58;100.00
51807;BME280;37865;51.304;9.536;2023-05-12T05:44:59;100040.06;;;13.66;100.00
51807;BME280;37865;51.304;9.536;2023-05-12T05:47:24;100050.25;;;13.76;100.00
51807;BME280;37865;51.304;9.536;2023-05-12T05:49:52;100043.16;;;13.85;100.00
51807;BME280;37865;51.304;9.536;2023-05-12T05:52:17;100042.63;;;13.93;100.00
51807;BME280;37865;51.304;9.536;2023-05-12T05:54:43;100041.84;;;14.08;100.00
51807;BME280;37865;51.304;9.536;2023-05-12T05:57:08;100046.25;;;14.24;100.00
51807;BME280;37865;51.304;9.536;2023-05-12T05:59:33;100038.63;;;14.36;100.00
51807;BME280;37865;51.304;9.536;2023-05-12T06:01:59;100037.81;;;14.45;100.00
51807;BME280;37865;51.304;9.536;2023-05-12T06:04:24;100046.34;;;14.54;100.00
51807;BME280;37865;51.304;9.536;2023-05-12T06:06:49;100040.28;;;14.62;100.00
51807;BME280;37865;51.304;9.536;2023-05-12T06:09:14;100044.69;;;14.68;100.00
51807;BME280;37865;51.304;9.536;2023-05-12T06:11:40;100046.31;;;14.69;100.00
51807;BME280;37865;51.304;9.536;2023-05-12T06:14:05;100052.09;;;14.68;100.00
51807;BME280;37865;51.304;9.536;2023-05-12T06:16:31;100051.81;;;14.69;100.00
51807;BME280;37865;51.304;9.536;2023-05-12T06:18:56;100055.66;;;14.78;100.00
51807;BME280;37865;51.304;9.536;2023-05-12T06:21:21;100052.09;;;14.83;100.00
51807;BME280;37865;51.304;9.536;2023-05-12T06:23:47;100055.66;;;14.93;100.00
51807;BME280;37865;51.304;9.536;2023-05-12T06:26:12;100060.56;;;15.06;100.00
51807;BME280;37865;51.304;9.536;2023-05-12T06:28:38;100055.63;;;15.18;100.00
51807;BME280;37865;51.304;9.536;2023-05-12T06:31:06;100052.84;;;15.23;100.00
51807;BME280;37865;51.304;9.536;2023-05-12T06:33:32;100052.56;;;15.30;100.00
51807;BME280;37865;51.304;9.536;2023-05-12T06:35:58;100058.31;;;15.39;100.00
51807;BME280;37865;51.304;9.536;2023-05-12T06:38:23;100057.75;;;15.47;100.00
51807;BME280;37865;51.304;9.536;2023-05-12T06:40:48;100066.22;;;15.60;100.00
51807;BME280;37865;51.304;9.536;2023-05-12T06:43:14;100060.38;;;15.82;100.00
51807;BME280;37865;51.304;9.536;2023-05-12T06:45:39;100063.06;;;15.97;100.00
51807;BME280;37865;51.304;9.536;2023-05-12T06:48:04;100069.63;;;16.01;100.00
51807;BME280;37865;51.304;9.536;2023-05-12T06:50:30;100065.75;;;16.07;100.00
51807;BME280;37865;51.304;9.536;2023-05-12T06:52:55;100061.34;;;16.06;100.00
51807;BME280;37865;51.304;9.536;2023-05-12T06:55:21;100058.31;;;16.07;100.00
51807;BME280;37865;51.304;9.536;2023-05-12T06:57:47;100060.78;;;16.04;100.00
51807;BME280;37865;51.304;9.536;2023-05-12T07:00:13;100063.53;;;16.04;100.00
51807;BME280;37865;51.304;9.536;2023-05-12T07:02:38;100064.69;;;15.98;100.00
51807;BME280;37865;51.304;9.536;2023-05-12T07:05:04;100071.56;;;16.00;100.00
51807;BME280;37865;51.304;9.536;2023-05-12T07:07:29;100069.34;;;16.02;100.00
51807;BME280;37865;51.304;9.536;2023-05-12T07:09:54;100072.63;;;16.04;100.00
51807;BME280;37865;51.304;9.536;2023-05-12T07:12:21;100066.81;;;16.16;100.00
51807;BME280;37865;51.304;9.536;2023-05-12T07:14:46;100073.06;;;16.27;100.00
51807;BME280;37865;51.304;9.536;2023-05-12T07:17:12;100069.38;;;16.41;100.00
51807;BME280;37865;51.304;9.536;2023-05-12T07:19:37;100065.19;;;16.54;100.00
51807;BME280;37865;51.304;9.536;2023-05-12T07:22:04;100062.63;;;16.62;100.00
51807;BME280;37865;51.304;9.536;2023-05-12T07:24:29;100059.28;;;16.70;100.00
51807;BME280;37865;51.304;9.536;2023-05-12T07:26:55;100058.72;;;16.68;100.00
51807;BME280;37865;51.304;9.536;2023-05-12T07:29:21;100057.31;;;16.76;100.00
51807;BME280;37865;51.304;9.536;2023-05-12T07:31:46;100055.50;;;16.95;100.00
51807;BME280;37865;51.304;9.536;2023-05-12T07:34:12;100053.09;;;17.12;100.00
51807;BME280;37865;51.304;9.536;2023-05-12T07:36:37;100049.88;;;17.34;100.00
51807;BME280;37865;51.304;9.536;2023-05-12T07:39:02;100049.66;;;17.54;100.00
51807;BME280;37865;51.304;9.536;2023-05-12T07:41:28;100054.94;;;17.74;98.86
51807;BME280;37865;51.304;9.536;2023-05-12T07:43:53;100046.66;;;17.74;97.22
51807;BME280;37865;51.304;9.536;2023-05-12T07:46:18;100034.06;;;17.87;96.48
51807;BME280;37865;51.304;9.536;2023-05-12T07:48:43;100039.75;;;17.95;94.69
51807;BME280;37865;51.304;9.536;2023-05-12T07:51:09;100031.47;;;18.14;93.99
51807;BME280;37865;51.304;9.536;2023-05-12T07:53:34;100030.81;;;18.40;93.44
51807;BME280;37865;51.304;9.536;2023-05-12T07:56:00;100025.22;;;18.64;92.38
51807;BME280;37865;51.304;9.536;2023-05-12T07:58:25;100022.06;;;18.71;90.63
51807;BME280;37865;51.304;9.536;2023-05-12T08:00:51;100024.25;;;18.74;90.31
51807;BME280;37865;51.304;9.536;2023-05-12T08:03:18;100025.03;;;18.74;89.34
51807;BME280;37865;51.304;9.536;2023-05-12T08:05:44;100031.31;;;18.80;90.28
51807;BME280;37865;51.304;9.536;2023-05-12T08:08:09;100024.53;;;19.04;89.96
51807;BME280;37865;51.304;9.536;2023-05-12T08:10:41;100025.78;;;19.25;88.99
51807;BME280;37865;51.304;9.536;2023-05-12T08:13:06;100029.59;;;19.43;88.40
51807;BME280;37865;51.304;9.536;2023-05-12T08:15:32;100020.88;;;19.63;88.38
51807;BME280;37865;51.304;9.536;2023-05-12T08:17:57;100019.75;;;19.78;86.62
51807;BME280;37865;51.304;9.536;2023-05-12T08:20:23;100029.38;;;19.94;85.19
51807;BME280;37865;51.304;9.536;2023-05-12T08:22:48;100018.88;;;20.18;83.29
51807;BME280;37865;51.304;9.536;2023-05-12T08:25:15;100007.91;;;20.49;82.25
51807;BME280;37865;51.304;9.536;2023-05-12T08:27:40;100014.72;;;20.87;80.60
51807;BME280;37865;51.304;9.536;2023-05-12T08:30:06;100016.25;;;21.02;77.71
51807;BME280;37865;51.304;9.536;2023-05-12T08:32:31;100010.56;;;21.29;77.28
51807;BME280;37865;51.304;9.536;2023-05-12T08:34:57;100025.28;;;21.77;76.84
51807;BME280;37865;51.304;9.536;2023-05-12T08:37:22;100010.34;;;22.04;74.72
51807;BME280;37865;51.304;9.536;2023-05-12T08:39:48;100016.00;;;21.90;74.62
51807;BME280;37865;51.304;9.536;2023-05-12T08:42:29;100020.19;;;21.71;74.02
51807;BME280;37865;51.304;9.536;2023-05-12T08:44:55;100013.09;;;21.47;74.63
51807;BME280;37865;51.304;9.536;2023-05-12T08:47:21;100007.91;;;21.24;73.15
51807;BME280;37865;51.304;9.536;2023-05-12T08:50:01;100014.25;;;21.16;71.41
51807;BME280;37865;51.304;9.536;2023-05-12T08:52:29;100013.13;;;21.17;73.31
51807;BME280;37865;51.304;9.536;2023-05-12T08:54:55;100014.47;;;21.28;72.89
51807;BME280;37865;51.304;9.536;2023-05-12T08:57:22;100013.72;;;21.44;72.68
51807;BME280;37865;51.304;9.536;2023-05-12T08:59:47;100016.59;;;21.70;72.09
51807;BME280;37865;51.304;9.536;2023-05-12T09:02:14;100010.34;;;22.04;69.47
51807;BME280;37865;51.304;9.536;2023-05-12T09:04:41;100007.06;;;22.27;69.13
51807;BME280;37865;51.304;9.536;2023-05-12T09:07:07;100003.00;;;22.42;68.69
51807;BME280;37865;51.304;9.536;2023-05-12T09:09:34;100003.16;;;22.54;66.71
51807;BME280;37865;51.304;9.536;2023-05-12T09:12:00;100006.13;;;22.66;68.91
51807;BME280;37865;51.304;9.536;2023-05-12T09:14:28;100009.53;;;22.80;68.63
51807;BME280;37865;51.304;9.536;2023-05-12T09:17:00;100001.16;;;22.97;64.32
51807;BME280;37865;51.304;9.536;2023-05-12T09:19:26;99995.50;;;23.23;65.48
51807;BME280;37865;51.304;9.536;2023-05-12T09:21:52;99997.22;;;23.53;62.76
51807;BME280;37865;51.304;9.536;2023-05-12T09:24:17;99993.88;;;23.68;60.73
51807;BME280;37865;51.304;9.536;2023-05-12T09:26:47;99993.09;;;23.59;59.03
51807;BME280;37865;51.304;9.536;2023-05-12T09:29:13;99994.53;;;23.65;62.11
51807;BME280;37865;51.304;9.536;2023-05-12T09:31:48;99997.63;;;23.72;59.06
51807;BME280;37865;51.304;9.536;2023-05-12T09:34:13;99984.50;;;23.73;61.68
51807;BME280;37865;51.304;9.536;2023-05-12T09:36:39;99989.50;;;23.59;61.71
51807;BME280;37865;51.304;9.536;2023-05-12T09:39:06;99990.53;;;23.46;62.09
51807;BME280;37865;51.304;9.536;2023-05-12T09:44:01;99999.63;;;23.08;63.96
51807;BME280;37865;51.304;9.536;2023-05-12T09:46:26;100008.34;;;22.98;63.76
51807;BME280;37865;51.304;9.536;2023-05-12T09:48:55;99996.56;;;23.01;62.97
51807;BME280;37865;51.304;9.536;2023-05-12T09:51:25;99998.84;;;23.08;62.58
51807;BME280;37865;51.304;9.536;2023-05-12T09:53:50;99994.06;;;23.17;61.42
51807;BME280;37865;51.304;9.536;2023-05-12T09:56:17;99999.13;;;23.32;61.74
51807;BME280;37865;51.304;9.536;2023-05-12T09:58:44;99997.50;;;23.60;60.82
51807;BME280;37865;51.304;9.536;2023-05-12T10:01:12;100006.00;;;23.93;60.04
51807;BME280;37865;51.304;9.536;2023-05-12T10:03:39;99992.13;;;24.14;58.81
51807;BME280;37865;51.304;9.536;2023-05-12T10:06:08;99998.25;;;24.07;59.45
51807;BME280;37865;51.304;9.536;2023-05-12T10:08:45;100001.53;;;24.01;53.95
51807;BME280;37865;51.304;9.536;2023-05-12T10:11:13;99991.25;;;24.22;59.81
51807;BME280;37865;51.304;9.536;2023-05-12T10:13:39;99991.56;;;24.61;59.60
51807;BME280;37865;51.304;9.536;2023-05-12T10:16:04;99987.94;;;24.82;57.86
51807;BME280;37865;51.304;9.536;2023-05-12T10:18:32;99995.88;;;24.92;58.98
51807;BME280;37865;51.304;9.536;2023-05-12T10:20:59;99994.97;;;25.00;57.44
51807;BME280;37865;51.304;9.536;2023-05-12T10:23:26;99987.81;;;25.23;58.23
51807;BME280;37865;51.304;9.536;2023-05-12T10:25:53;99987.06;;;25.02;56.57
51807;BME280;37865;51.304;9.536;2023-05-12T10:28:23;99994.19;;;24.58;57.19
51807;BME280;37865;51.304;9.536;2023-05-12T10:30:49;99996.00;;;24.21;58.66
51807;BME280;37865;51.304;9.536;2023-05-12T10:33:15;99998.56;;;23.76;58.20
51807;BME280;37865;51.304;9.536;2023-05-12T10:35:42;100006.94;;;23.39;58.57
51807;BME280;37865;51.304;9.536;2023-05-12T10:38:10;99997.53;;;23.05;60.09
51807;BME280;37865;51.304;9.536;2023-05-12T10:43:25;100002.69;;;22.69;60.08
51807;BME280;37865;51.304;9.536;2023-05-12T10:48:56;100005.78;;;22.42;58.24
51807;BME280;37865;51.304;9.536;2023-05-12T10:51:30;100005.78;;;22.25;61.29
51807;BME280;37865;51.304;9.536;2023-05-12T10:54:05;100000.72;;;22.18;63.08
51807;BME280;37865;51.304;9.536;2023-05-12T11:01:31;99998.75;;;22.27;64.91
51807;BME280;37865;51.304;9.536;2023-05-12T11:04:08;100000.06;;;22.38;64.74
51807;BME280;37865;51.304;9.536;2023-05-12T11:06:33;100002.34;;;22.45;64.39
51807;BME280;37865;51.304;9.536;2023-05-12T11:08:58;99995.00;;;22.49;64.64
51807;BME280;37865;51.304;9.536;2023-05-12T11:11:24;99988.00;;;22.60;64.62
51807;BME280;37865;51.304;9.536;2023-05-12T11:13:50;99991.75;;;22.64;63.30
51807;BME280;37865;51.304;9.536;2023-05-12T11:16:15;99998.09;;;22.73;64.01
51807;BME280;37865;51.304;9.536;2023-05-12T11:18:41;99992.03;;;22.80;62.89
51807;BME280;37865;51.304;9.536;2023-05-12T11:21:10;99994.47;;;22.81;61.73
51807;BME280;37865;51.304;9.536;2023-05-12T11:23:38;99994.97;;;22.83;63.72
51807;BME280;37865;51.304;9.536;2023-05-12T11:26:04;99994.97;;;22.83;62.99
51807;BME280;37865;51.304;9.536;2023-05-12T11:28:40;99991.88;;;22.68;59.06
51807;BME280;37865;51.304;9.536;2023-05-12T11:31:05;99999.59;;;22.62;62.17
51807;BME280;37865;51.304;9.536;2023-05-12T11:33:31;100000.56;;;22.66;61.46
51807;BME280;37865;51.304;9.536;2023-05-12T11:35:56;100000.38;;;22.71;60.65
51807;BME280;37865;51.304;9.536;2023-05-12T11:38:22;99998.56;;;22.75;59.89
51807;BME280;37865;51.304;9.536;2023-05-12T11:40:48;100000.22;;;22.76;58.46
51807;BME280;37865;51.304;9.536;2023-05-12T11:43:19;100002.50;;;22.91;55.37
51807;BME280;37865;51.304;9.536;2023-05-12T11:45:44;100003.94;;;22.97;56.61
51807;BME280;37865;51.304;9.536;2023-05-12T11:48:13;99995.38;;;23.11;56.20
51807;BME280;37865;51.304;9.536;2023-05-12T11:50:40;99999.59;;;23.34;57.54
51807;BME280;37865;51.304;9.536;2023-05-12T11:53:10;99996.81;;;23.34;52.74
51807;BME280;37865;51.304;9.536;2023-05-12T11:55:48;99987.00;;;23.19;52.85
51807;BME280;37865;51.304;9.536;2023-05-12T11:58:18;99991.13;;;23.13;54.32
51807;BME280;37865;51.304;9.536;2023-05-12T12:00:45;99996.84;;;23.17;55.40
51807;BME280;37865;51.304;9.536;2023-05-12T12:03:12;100002.56;;;23.21;54.75
51807;BME280;37865;51.304;9.536;2023-05-12T12:05:39;99991.88;;;23.31;53.95
51807;BME280;37865;51.304;9.536;2023-05-12T12:08:14;99984.88;;;23.16;50.73
51807;BME280;37865;51.304;9.536;2023-05-12T12:10:44;100000.94;;;23.11;52.52
51807;BME280;37865;51.304;9.536;2023-05-12T12:13:10;99997.19;;;23.07;53.68
51807;BME280;37865;51.304;9.536;2023-05-12T12:15:36;99995.75;;;23.01;52.65
51807;BME280;37865;51.304;9.536;2023-05-12T12:18:01;99999.72;;;22.91;51.37
51807;BME280;37865;51.304;9.536;2023-05-12T12:20:27;99999.38;;;22.84;51.50
51807;BME280;37865;51.304;9.536;2023-05-12T12:22:52;99989.72;;;22.90;51.62
51807;BME280;37865;51.304;9.536;2023-05-12T12:25:19;99997.22;;;22.98;50.95
51807;BME280;37865;51.304;9.536;2023-05-12T12:27:45;99998.03;;;22.99;49.92
51807;BME280;37865;51.304;9.536;2023-05-12T12:30:11;99995.41;;;23.02;50.52
51807;BME280;37865;51.304;9.536;2023-05-12T12:32:36;100000.66;;;23.04;50.13
51807;BME280;37865;51.304;9.536;2023-05-12T12:35:02;99998.66;;;23.13;51.01
51807;BME280;37865;51.304;9.536;2023-05-12T12:37:30;100000.81;;;23.07;51.17
51807;BME280;37865;51.304;9.536;2023-05-12T12:39:56;100007.50;;;23.06;51.24
51807;BME280;37865;51.304;9.536;2023-05-12T12:42:21;100008.50;;;23.02;50.92
51807;BME280;37865;51.304;9.536;2023-05-12T12:44:47;100010.50;;;22.93;50.62
51807;BME280;37865;51.304;9.536;2023-05-12T12:47:14;100007.72;;;22.93;51.28
51807;BME280;37865;51.304;9.536;2023-05-12T12:49:39;100007.84;;;23.05;51.33
51807;BME280;37865;51.304;9.536;2023-05-12T12:52:05;100007.66;;;23.56;50.42
51807;BME280;37865;51.304;9.536;2023-05-12T12:54:30;100005.53;;;24.20;49.85
51807;BME280;37865;51.304;9.536;2023-05-12T12:56:56;100000.13;;;24.56;49.24
51807;BME280;37865;51.304;9.536;2023-05-12T12:59:21;99998.44;;;24.85;49.68